Time;durP1;ratioP1;P1;durP2;ratioP2;P2;SDS_P1;SDS_P2;PMS_P1;PMS_P2;Temp;Humidity;BMP_temperature;BMP_pressure;BME280_temperature;BME280_humidity;BME280_pressure;Samples;Min_cycle;Max_cycle;Signal;HPM_P1;HPM_P2
2022/06/26 00:01:54;;;;;;;1.10;0.80;;;22.80;65.90;;;;;;5112416;28;20043;-70
2022/06/26 00:04:20;;;;;;;1.23;0.80;;;22.80;65.90;;;;;;5111667;28;20538;-69
2022/06/26 00:06:46;;;;;;;3.60;1.00;;;22.80;65.90;;;;;;5111896;28;20047;-69
2022/06/26 00:09:12;;;;;;;1.00;0.88;;;22.80;65.90;;;;;;5112227;28;20086;-69
2022/06/26 00:11:38;;;;;;;1.83;0.80;;;22.80;65.90;;;;;;5113124;28;20088;-69
2022/06/26 00:14:04;;;;;;;0.93;0.65;;;22.80;65.90;;;;;;5113310;28;20567;-71
2022/06/26 00:16:29;;;;;;;1.80;1.02;;;22.80;66.00;;;;;;5112166;28;20448;-69
2022/06/26 00:18:56;;;;;;;2.15;1.10;;;22.80;65.90;;;;;;5113210;28;20034;-70
2022/06/26 00:21:22;;;;;;;1.40;0.70;;;22.70;65.90;;;;;;5112212;28;20114;-70
2022/06/26 00:23:51;;;;;;;4.13;1.08;;;22.70;65.90;;;;;;5111909;28;20066;-69
2022/06/26 00:26:17;;;;;;;1.23;0.73;;;22.70;66.00;;;;;;5111853;28;20047;-69
2022/06/26 00:28:43;;;;;;;1.52;0.70;;;22.70;66.00;;;;;;5113119;28;20038;-70
2022/06/26 00:31:08;;;;;;;4.03;0.82;;;22.70;66.00;;;;;;5111960;28;20479;-70
2022/06/26 00:33:34;;;;;;;1.10;0.93;;;22.70;66.00;;;;;;5111517;28;20558;-69
2022/06/26 00:35:59;;;;;;;1.65;0.73;;;22.70;66.00;;;;;;5111836;28;20031;-70
2022/06/26 00:38:25;;;;;;;0.70;0.60;;;22.70;66.00;;;;;;5110780;28;20510;-70
2022/06/26 00:40:51;;;;;;;1.75;0.85;;;22.70;66.00;;;;;;5111465;28;20067;-70
2022/06/26 00:43:16;;;;;;;1.10;0.50;;;22.70;66.00;;;;;;5111388;28;20039;-71
2022/06/26 00:45:42;;;;;;;0.88;0.60;;;22.70;66.00;;;;;;5112820;28;20039;-69
2022/06/26 00:48:08;;;;;;;0.60;0.40;;;22.70;66.00;;;;;;5111363;28;20078;-69
2022/06/26 00:50:35;;;;;;;0.90;0.63;;;22.70;66.00;;;;;;5112607;28;20061;-70
2022/06/26 00:53:00;;;;;;;2.03;0.85;;;22.70;66.00;;;;;;5111305;28;20044;-70
2022/06/26 00:55:27;;;;;;;1.70;0.90;;;22.70;66.00;;;;;;5111175;28;20036;-70
2022/06/26 00:57:53;;;;;;;0.85;0.73;;;22.70;66.00;;;;;;5111306;28;20128;-70
2022/06/26 01:00:24;;;;;;;1.35;0.85;;;22.70;66.10;;;;;;5110768;28;20043;-70
2022/06/26 01:02:50;;;;;;;1.40;0.88;;;22.70;66.10;;;;;;5112741;28;20049;-70
2022/06/26 01:05:15;;;;;;;2.45;0.88;;;22.70;66.10;;;;;;5111124;28;20035;-70
2022/06/26 01:07:41;;;;;;;1.02;0.60;;;22.70;66.10;;;;;;5111008;28;20077;-69
2022/06/26 01:10:07;;;;;;;2.95;1.00;;;22.70;66.10;;;;;;5112298;28;20048;-70
2022/06/26 01:12:33;;;;;;;0.95;0.75;;;22.70;66.10;;;;;;5112132;28;20047;-70
2022/06/26 01:15:00;;;;;;;1.13;0.73;;;22.70;66.00;;;;;;5111032;28;20040;-70
2022/06/26 01:17:27;;;;;;;1.15;0.57;;;22.70;66.10;;;;;;5111315;28;20043;-70
2022/06/26 01:19:54;;;;;;;0.80;0.63;;;22.70;66.10;;;;;;5111023;28;20085;-69
2022/06/26 01:22:20;;;;;;;1.08;0.50;;;22.70;66.00;;;;;;5112345;28;20048;-70
2022/06/26 01:24:46;;;;;;;1.02;0.68;;;22.70;66.00;;;;;;5112156;28;20112;-70
2022/06/26 01:27:12;;;;;;;2.63;0.70;;;22.70;65.90;;;;;;5111308;28;20088;-70
2022/06/26 01:29:41;;;;;;;1.17;0.65;;;22.70;65.90;;;;;;5111448;28;20032;-69
2022/06/26 01:32:07;;;;;;;1.40;0.73;;;22.70;65.90;;;;;;5110999;28;20533;-70
2022/06/26 01:34:33;;;;;;;1.33;0.60;;;22.70;65.90;;;;;;5110232;28;20072;-69
2022/06/26 01:37:00;;;;;;;1.38;0.80;;;22.70;66.60;;;;;;5110708;28;20043;-69
2022/06/26 01:39:25;;;;;;;1.65;0.90;;;22.70;65.80;;;;;;5111071;28;20482;-69
2022/06/26 01:41:51;;;;;;;0.90;0.52;;;22.70;65.90;;;;;;5110812;28;20036;-69
2022/06/26 01:44:17;;;;;;;1.65;0.90;;;22.70;65.90;;;;;;5112032;28;20146;-70
2022/06/26 01:46:42;;;;;;;1.55;0.95;;;22.70;65.80;;;;;;5110671;28;20152;-70
2022/06/26 01:49:08;;;;;;;2.08;0.68;;;22.70;65.80;;;;;;5110802;28;20043;-74
2022/06/26 01:51:34;;;;;;;1.85;0.73;;;22.70;65.90;;;;;;5111914;28;20126;-75
2022/06/26 01:53:59;;;;;;;1.73;0.80;;;22.70;65.80;;;;;;5111991;28;20044;-75
2022/06/26 01:56:25;;;;;;;1.15;0.68;;;22.70;65.80;;;;;;5110485;28;20032;-76
2022/06/26 01:58:57;;;;;;;1.45;0.70;;;22.70;65.80;;;;;;5111006;28;20035;-75
2022/06/26 02:01:23;;;;;;;1.10;0.90;;;22.70;65.80;;;;;;5111910;28;20417;-75
2022/06/26 02:03:48;;;;;;;2.05;0.98;;;22.70;65.80;;;;;;5110885;28;20047;-75
2022/06/26 02:06:14;;;;;;;0.80;0.60;;;22.70;65.80;;;;;;5109996;28;20046;-74
2022/06/26 02:08:39;;;;;;;0.90;0.70;;;22.70;65.90;;;;;;5110560;28;20055;-74
2022/06/26 02:13:52;;;;;;;2.20;0.77;;;22.70;65.90;;;;;;5110110;28;20128;-74
2022/06/26 02:16:24;;;;;;;1.60;0.80;;;22.70;65.90;;;;;;5110728;28;20043;-74
2022/06/26 02:18:52;;;;;;;1.65;0.70;;;22.70;66.00;;;;;;5110174;28;20039;-73
2022/06/26 02:21:20;;;;;;;1.27;0.68;;;22.60;65.90;;;;;;5114769;28;20059;-74
2022/06/26 02:23:48;;;;;;;1.48;0.85;;;22.60;65.90;;;;;;5114097;28;20092;-75
2022/06/26 02:26:14;;;;;;;1.35;0.68;;;22.60;65.90;;;;;;5114413;28;20434;-73
2022/06/26 02:28:41;;;;;;;2.05;0.80;;;22.60;65.90;;;;;;5114042;28;20069;-73
2022/06/26 02:31:07;;;;;;;2.08;0.63;;;22.60;65.90;;;;;;5114343;28;20396;-73
2022/06/26 02:33:33;;;;;;;1.80;0.60;;;22.60;65.90;;;;;;5115218;28;20040;-73
2022/06/26 02:36:00;;;;;;;3.00;0.80;;;22.60;65.90;;;;;;5113951;28;20039;-73
2022/06/26 02:38:26;;;;;;;1.25;0.90;;;22.60;65.90;;;;;;5113745;28;20043;-74
2022/06/26 02:40:52;;;;;;;1.33;0.50;;;22.60;66.00;;;;;;5112441;28;20043;-73
2022/06/26 02:43:19;;;;;;;1.67;0.60;;;22.60;66.00;;;;;;5113467;28;20055;-73
2022/06/26 02:45:48;;;;;;;1.35;0.50;;;22.60;66.00;;;;;;5114020;28;20062;-73
2022/06/26 02:48:14;;;;;;;1.10;0.77;;;22.50;65.90;;;;;;5113648;28;20491;-73
2022/06/26 02:50:40;;;;;;;1.58;0.90;;;22.60;66.00;;;;;;5113866;28;20050;-73
2022/06/26 02:53:06;;;;;;;1.05;0.73;;;22.60;66.00;;;;;;5113448;28;20376;-73
2022/06/26 02:55:31;;;;;;;1.25;0.75;;;22.60;66.00;;;;;;5115042;28;20479;-73
2022/06/26 02:57:57;;;;;;;1.65;0.60;;;22.60;66.00;;;;;;5114724;28;20114;-73
2022/06/26 03:00:23;;;;;;;1.08;0.50;;;22.60;66.00;;;;;;5114716;28;20042;-73
2022/06/26 03:02:49;;;;;;;2.08;0.88;;;22.50;66.00;;;;;;5114649;28;20042;-73
2022/06/26 03:05:15;;;;;;;0.93;0.50;;;22.50;66.00;;;;;;5113682;28;20039;-73
2022/06/26 03:07:41;;;;;;;2.47;1.05;;;22.50;66.00;;;;;;5114493;28;20027;-73
2022/06/26 03:10:07;;;;;;;1.25;0.50;;;22.50;66.00;;;;;;5113541;28;20039;-73
2022/06/26 03:12:33;;;;;;;1.42;0.60;;;22.50;66.00;;;;;;5112848;28;20051;-73
2022/06/26 03:14:59;;;;;;;1.13;0.70;;;22.50;66.10;;;;;;5113378;28;20043;-73
2022/06/26 03:17:25;;;;;;;1.13;0.35;;;22.50;66.10;;;;;;5113331;28;20509;-73
2022/06/26 03:19:51;;;;;;;0.85;0.50;;;22.50;66.10;;;;;;5113090;28;20040;-74
2022/06/26 03:22:16;;;;;;;0.95;0.52;;;22.50;66.10;;;;;;5114225;28;20478;-74
2022/06/26 03:24:42;;;;;;;0.80;0.60;;;22.50;66.10;;;;;;5113336;28;20096;-74
2022/06/26 03:27:08;;;;;;;1.30;0.40;;;22.50;66.10;;;;;;5113876;28;20047;-74
2022/06/26 03:29:34;;;;;;;1.08;0.50;;;22.50;66.10;;;;;;5114387;28;20043;-74
2022/06/26 03:32:00;;;;;;;0.93;0.70;;;22.50;66.10;;;;;;5113079;28;20430;-76
2022/06/26 03:34:25;;;;;;;0.80;0.57;;;22.40;66.10;;;;;;5112840;28;20524;-74
2022/06/26 03:36:51;;;;;;;1.35;0.50;;;22.50;66.10;;;;;;5112794;28;20036;-74
2022/06/26 03:39:17;;;;;;;0.98;0.52;;;22.40;66.10;;;;;;5112914;28;20039;-74
2022/06/26 03:41:57;;;;;;;1.15;0.80;;;22.40;66.10;;;;;;5112904;28;20467;-74
2022/06/26 03:44:23;;;;;;;;;;;22.40;66.10;;;;;;5114359;28;20074;-74
2022/06/26 03:46:49;;;;;;;0.93;0.70;;;22.40;66.10;;;;;;5112840;28;19985;-74
2022/06/26 03:49:14;;;;;;;1.23;0.50;;;22.40;66.10;;;;;;5112499;28;20495;-74
2022/06/26 03:51:40;;;;;;;1.05;0.80;;;22.40;66.10;;;;;;5113736;28;20118;-74
2022/06/26 03:54:06;;;;;;;1.15;0.50;;;22.40;66.10;;;;;;5112333;28;20036;-74
2022/06/26 03:56:31;;;;;;;0.70;0.45;;;22.40;66.20;;;;;;5113670;28;20406;-74
2022/06/26 03:58:57;;;;;;;0.77;0.50;;;22.40;66.20;;;;;;5112394;28;20084;-74
2022/06/26 04:01:23;;;;;;;1.20;0.65;;;22.40;66.20;;;;;;5112526;28;20039;-74
2022/06/26 04:03:48;;;;;;;0.93;0.52;;;22.40;66.20;;;;;;5112466;28;20096;-75
2022/06/26 04:06:14;;;;;;;1.40;0.50;;;22.40;66.20;;;;;;5112097;28;20046;-74
2022/06/26 04:08:47;;;;;;;0.82;0.50;;;22.30;66.20;;;;;;5112278;28;20042;-74
2022/06/26 04:11:14;;;;;;;1.15;0.60;;;22.40;66.20;;;;;;5112056;28;20486;-74
2022/06/26 04:13:40;;;;;;;0.90;0.50;;;22.30;66.10;;;;;;5111816;28;20047;-74
2022/06/26 04:16:06;;;;;;;0.98;0.50;;;22.30;66.20;;;;;;5112245;28;20040;-74
2022/06/26 04:18:31;;;;;;;1.83;0.57;;;22.30;66.10;;;;;;5112217;28;20193;-74
2022/06/26 04:21:00;;;;;;;1.65;0.50;;;22.30;66.10;;;;;;5111869;28;20126;-74
2022/06/26 04:23:28;;;;;;;0.93;0.60;;;22.30;66.20;;;;;;5111833;28;20047;-74
2022/06/26 04:25:54;;;;;;;1.45;0.50;;;22.30;66.20;;;;;;5111993;28;20052;-74
2022/06/26 04:28:20;;;;;;;0.80;0.40;;;22.30;66.10;;;;;;5111785;28;20050;-74
2022/06/26 04:30:45;;;;;;;0.98;0.60;;;22.30;66.10;;;;;;5111675;28;20040;-74
2022/06/26 04:33:14;;;;;;;1.52;0.63;;;22.30;66.10;;;;;;5111741;28;20047;-74
2022/06/26 04:35:39;;;;;;;1.63;0.52;;;22.30;66.10;;;;;;5110434;28;20122;-74
2022/06/26 04:38:05;;;;;;;2.30;0.50;;;22.30;66.10;;;;;;5111494;28;20070;-74
2022/06/26 04:40:31;;;;;;;0.90;0.50;;;22.30;66.20;;;;;;5111673;28;20032;-74
2022/06/26 04:42:57;;;;;;;1.00;0.50;;;22.30;66.10;;;;;;5111309;28;20050;-74
2022/06/26 04:45:23;;;;;;;0.80;0.50;;;22.30;66.20;;;;;;5092523;28;20120;-74
2022/06/26 04:47:49;;;;;;;0.88;0.47;;;22.30;66.10;;;;;;5110160;28;20441;-74
2022/06/26 04:50:15;;;;;;;1.33;0.60;;;22.30;66.10;;;;;;5112730;28;20467;-74
2022/06/26 04:52:45;;;;;;;0.70;0.50;;;22.30;66.10;;;;;;5112466;28;20138;-74
2022/06/26 04:55:10;;;;;;;2.13;0.50;;;22.30;66.10;;;;;;5111665;28;20089;-74
2022/06/26 04:57:36;;;;;;;1.38;0.50;;;22.30;66.00;;;;;;5110554;28;20031;-75
2022/06/26 05:00:08;;;;;;;1.08;0.60;;;22.30;66.70;;;;;;5111360;28;20039;-74
2022/06/26 05:02:35;;;;;;;1.52;0.68;;;22.30;65.90;;;;;;5112433;28;20085;-75
2022/06/26 05:05:01;;;;;;;0.75;0.50;;;22.30;65.80;;;;;;5112575;28;20110;-75
2022/06/26 05:07:26;;;;;;;1.02;0.50;;;22.30;65.80;;;;;;5111294;28;20463;-75
2022/06/26 05:09:52;;;;;;;0.80;0.50;;;22.30;65.80;;;;;;5111194;28;20043;-75
2022/06/26 05:12:18;;;;;;;0.98;0.30;;;22.30;65.80;;;;;;5111507;28;20055;-74
2022/06/26 05:14:43;;;;;;;1.13;0.40;;;22.30;65.70;;;;;;5112180;28;20051;-74
2022/06/26 05:17:10;;;;;;;2.13;0.60;;;22.30;65.80;;;;;;5111276;28;20048;-74
2022/06/26 05:19:35;;;;;;;0.85;0.40;;;22.30;65.70;;;;;;5111326;28;20477;-74
2022/06/26 05:22:02;;;;;;;0.80;0.40;;;22.30;65.70;;;;;;5112295;28;20031;-74
2022/06/26 05:24:32;;;;;;;1.48;0.43;;;22.30;65.70;;;;;;5094230;28;20050;-74
2022/06/26 05:26:58;;;;;;;1.40;0.40;;;22.30;65.80;;;;;;5112412;28;20058;-74
2022/06/26 05:29:25;;;;;;;0.77;0.45;;;22.30;65.80;;;;;;5111225;28;20086;-74
2022/06/26 05:31:51;;;;;;;1.65;0.60;;;22.30;65.80;;;;;;5111179;28;20453;-74
2022/06/26 05:34:16;;;;;;;0.73;0.40;;;22.30;65.80;;;;;;5110803;28;20118;-75
2022/06/26 05:36:42;;;;;;;0.85;0.40;;;22.30;65.80;;;;;;5111105;28;20517;-74
2022/06/26 05:39:08;;;;;;;0.77;0.60;;;22.30;65.90;;;;;;5110917;28;20039;-74
2022/06/26 05:41:34;;;;;;;0.90;0.45;;;22.20;65.80;;;;;;5110849;28;20059;-74
2022/06/26 05:43:59;;;;;;;0.88;0.50;;;22.20;65.80;;;;;;5110730;28;20039;-74
2022/06/26 05:46:25;;;;;;;0.88;0.50;;;22.30;65.90;;;;;;5110791;28;20054;-74
2022/06/26 05:48:51;;;;;;;1.45;0.50;;;22.30;65.80;;;;;;5112059;28;20042;-74
2022/06/26 05:51:16;;;;;;;0.80;0.45;;;22.30;65.80;;;;;;5112083;28;20093;-74
2022/06/26 05:53:42;;;;;;;0.80;0.40;;;22.30;65.80;;;;;;5110517;28;20205;-74
2022/06/26 05:56:08;;;;;;;1.45;0.40;;;22.30;65.70;;;;;;5115139;28;20040;-74
2022/06/26 05:58:33;;;;;;;0.90;0.70;;;22.30;65.70;;;;;;5114800;28;20038;-74
2022/06/26 06:00:59;;;;;;;0.63;0.40;;;22.30;65.80;;;;;;5116090;28;20057;-74
2022/06/26 06:03:24;;;;;;;0.70;0.50;;;22.30;65.50;;;;;;5114896;28;20394;-74
2022/06/26 06:05:50;;;;;;;2.05;0.47;;;22.30;66.20;;;;;;5114487;28;20471;-74
2022/06/26 06:08:16;;;;;;;1.38;0.50;;;22.30;65.50;;;;;;5114414;28;20044;-74
2022/06/26 06:10:41;;;;;;;0.80;0.50;;;22.40;65.50;;;;;;5114378;28;20035;-74
2022/06/26 06:13:07;;;;;;;1.23;0.60;;;22.30;65.40;;;;;;5114228;28;20052;-74
2022/06/26 06:15:33;;;;;;;1.63;0.85;;;22.40;65.50;;;;;;5115569;28;20467;-74
2022/06/26 06:17:58;;;;;;;1.23;0.70;;;22.30;65.30;;;;;;5115204;28;20431;-74
2022/06/26 06:20:24;;;;;;;0.90;0.50;;;22.40;65.30;;;;;;5115017;28;20040;-75
2022/06/26 06:22:59;;;;;;;0.70;0.52;;;22.30;65.30;;;;;;5114817;28;20387;-74
2022/06/26 06:25:25;;;;;;;1.00;0.60;;;22.40;65.20;;;;;;5115594;28;20039;-74
2022/06/26 06:27:51;;;;;;;1.02;0.80;;;22.40;65.20;;;;;;5114362;28;20051;-74
2022/06/26 06:30:17;;;;;;;1.50;0.60;;;22.40;65.20;;;;;;5114204;28;20513;-74
2022/06/26 06:32:43;;;;;;;0.75;0.52;;;22.40;65.20;;;;;;5115318;28;20046;-74
2022/06/26 06:35:13;;;;;;;1.85;0.70;;;22.40;65.20;;;;;;5113875;28;20031;-74
2022/06/26 06:37:39;;;;;;;0.80;0.60;;;22.40;65.20;;;;;;5115234;28;20465;-74
2022/06/26 06:40:05;;;;;;;1.60;0.85;;;22.40;65.10;;;;;;5113903;28;20079;-74
2022/06/26 06:42:31;;;;;;;3.05;0.57;;;22.40;65.10;;;;;;5113860;28;20062;-75
2022/06/26 06:44:57;;;;;;;2.40;0.60;;;22.40;65.10;;;;;;5113626;28;20134;-74
2022/06/26 06:47:22;;;;;;;1.00;0.75;;;22.40;65.10;;;;;;5113689;28;20040;-75
2022/06/26 06:49:48;;;;;;;1.50;0.77;;;22.40;65.00;;;;;;5115005;28;20036;-74
2022/06/26 06:52:14;;;;;;;1.30;0.60;;;22.40;65.00;;;;;;5113530;28;20403;-75
2022/06/26 06:54:39;;;;;;;1.73;0.70;;;22.40;65.00;;;;;;5113870;28;20043;-75
2022/06/26 06:57:05;;;;;;;1.83;0.98;;;22.40;64.90;;;;;;5113366;28;20514;-74
2022/06/26 06:59:31;;;;;;;1.92;1.63;;;22.50;64.90;;;;;;5113723;28;20054;-75
2022/06/26 07:01:57;;;;;;;1.20;0.93;;;22.40;64.80;;;;;;5113768;28;20531;-74
2022/06/26 07:04:22;;;;;;;1.52;1.10;;;22.40;64.80;;;;;;5114682;28;20047;-75
2022/06/26 07:06:48;;;;;;;1.27;0.95;;;22.40;64.80;;;;;;5113212;28;20039;-74
2022/06/26 07:09:14;;;;;;;1.45;0.70;;;22.40;64.80;;;;;;5113280;28;20043;-74
2022/06/26 07:11:40;;;;;;;1.23;0.80;;;22.40;64.80;;;;;;5113139;28;20039;-74
2022/06/26 07:14:06;;;;;;;1.10;0.80;;;22.40;64.70;;;;;;5113217;28;20308;-74
2022/06/26 07:16:31;;;;;;;2.75;1.40;;;22.40;64.70;;;;;;5113433;28;20122;-74
2022/06/26 07:18:57;;;;;;;1.35;1.08;;;22.40;64.70;;;;;;5113125;28;20046;-74
2022/06/26 07:21:23;;;;;;;1.98;1.23;;;22.40;64.60;;;;;;5112311;28;20032;-75
2022/06/26 07:23:49;;;;;;;3.20;2.40;;;22.40;64.60;;;;;;5112630;28;20050;-74
2022/06/26 07:26:15;;;;;;;1.30;1.17;;;22.40;64.60;;;;;;5114181;28;20043;-74
2022/06/26 07:28:40;;;;;;;2.13;1.20;;;22.40;64.60;;;;;;5112847;28;20085;-74
2022/06/26 07:31:06;;;;;;;1.30;1.08;;;22.40;64.50;;;;;;5112915;28;20057;-74
2022/06/26 07:36:17;;;;;;;2.08;1.10;;;22.40;64.40;;;;;;5112669;28;20050;-75
2022/06/26 07:38:43;;;;;;;1.27;1.05;;;22.40;64.40;;;;;;5112680;28;20031;-74
2022/06/26 07:41:09;;;;;;;2.05;1.88;;;22.40;64.30;;;;;;5112965;28;20046;-74
2022/06/26 07:43:34;;;;;;;1.42;1.33;;;22.40;64.30;;;;;;5112484;28;20058;-74
2022/06/26 07:46:00;;;;;;;2.20;1.80;;;22.40;64.30;;;;;;5113982;28;20040;-74
2022/06/26 07:48:26;;;;;;;1.63;1.25;;;22.50;64.40;;;;;;5112503;28;20038;-74
2022/06/26 07:50:52;;;;;;;2.33;1.13;;;22.40;64.30;;;;;;5112791;28;20065;-74
2022/06/26 07:53:19;;;;;;;1.50;1.40;;;22.40;64.20;;;;;;5112269;28;20040;-74
2022/06/26 07:55:45;;;;;;;1.50;1.20;;;22.40;64.20;;;;;;5113691;28;20111;-74
2022/06/26 07:58:10;;;;;;;2.08;1.83;;;22.40;64.20;;;;;;5112563;28;20115;-74
2022/06/26 08:00:39;;;;;;;1.70;1.00;;;22.40;64.10;;;;;;5112500;28;20032;-75
2022/06/26 08:03:10;;;;;;;1.35;1.20;;;22.50;64.00;;;;;;5112334;28;20043;-74
2022/06/26 08:05:37;;;;;;;1.27;1.10;;;22.50;63.90;;;;;;5112269;28;20065;-73
2022/06/26 08:08:04;;;;;;;1.90;1.35;;;22.50;63.70;;;;;;5113339;28;20092;-73
2022/06/26 08:10:30;;;;;;;1.17;0.88;;;22.50;63.70;;;;;;5112309;28;20043;-74
2022/06/26 08:12:56;;;;;;;1.00;0.75;;;22.50;63.70;;;;;;5111777;28;20043;-73
2022/06/26 08:15:22;;;;;;;1.30;0.85;;;22.50;63.70;;;;;;5112057;28;20696;-73
2022/06/26 08:17:48;;;;;;;1.10;1.00;;;22.50;63.70;;;;;;5111467;28;20040;-74
2022/06/26 08:20:14;;;;;;;2.60;1.27;;;22.60;63.70;;;;;;5111905;28;20384;-74
2022/06/26 08:22:40;;;;;;;1.00;0.80;;;22.60;63.50;;;;;;5111763;28;20046;-73
2022/06/26 08:25:06;;;;;;;1.10;0.98;;;22.70;63.40;;;;;;5111795;28;20122;-73
2022/06/26 08:27:31;;;;;;;1.58;1.40;;;22.70;63.20;;;;;;5111846;28;20055;-73
2022/06/26 08:29:57;;;;;;;1.55;1.02;;;22.70;63.00;;;;;;5111659;28;20040;-74
2022/06/26 08:32:23;;;;;;;2.30;1.10;;;22.80;62.90;;;;;;5111615;28;20073;-73
2022/06/26 08:34:48;;;;;;;1.45;1.13;;;22.80;62.70;;;;;;5111041;28;20106;-73
2022/06/26 08:37:17;;;;;;;2.63;1.00;;;22.80;62.50;;;;;;5111571;28;20043;-73
2022/06/26 08:39:43;;;;;;;2.10;0.80;;;22.90;62.50;;;;;;5111459;28;20104;-73
2022/06/26 08:42:09;;;;;;;1.55;1.00;;;22.90;62.30;;;;;;5111010;28;20039;-73
2022/06/26 08:44:42;;;;;;;1.58;0.80;;;23.00;62.10;;;;;;5111641;28;20092;-74
2022/06/26 08:47:09;;;;;;;1.40;1.00;;;23.10;61.90;;;;;;5111456;28;20047;-73
2022/06/26 08:49:35;;;;;;;0.90;0.60;;;23.10;61.70;;;;;;5111389;28;20086;-73
2022/06/26 08:52:01;;;;;;;1.13;0.70;;;23.30;61.40;;;;;;5111389;28;20040;-73
2022/06/26 08:54:31;;;;;;;0.63;0.50;;;23.30;61.10;;;;;;5111341;28;20475;-73
2022/06/26 08:56:58;;;;;;;1.30;0.90;;;23.40;60.80;;;;;;5110698;28;20040;-73
2022/06/26 08:59:24;;;;;;;0.80;0.60;;;23.50;60.50;;;;;;5111067;28;20027;-73
2022/06/26 09:01:49;;;;;;;1.23;0.85;;;23.60;60.10;;;;;;5094621;28;20042;-72
2022/06/26 09:04:18;;;;;;;1.30;0.90;;;23.80;59.80;;;;;;5111259;28;20039;-73
2022/06/26 09:06:44;;;;;;;0.73;0.50;;;24.00;59.20;;;;;;5111017;28;20643;-74
2022/06/26 09:11:58;;;;;;;1.73;0.80;;;24.40;58.00;;;;;;5129520;27;20391;-73
2022/06/26 09:14:26;;;;;;;1.77;1.02;;;24.60;57.50;;;;;;5129113;28;20466;-73
2022/06/26 09:16:53;;;;;;;1.77;0.80;;;24.70;57.20;;;;;;5129179;28;20140;-73
2022/06/26 09:19:23;;;;;;;1.15;0.80;;;24.70;57.00;;;;;;5129109;28;20036;-73
2022/06/26 09:21:50;;;;;;;1.58;0.75;;;24.70;57.00;;;;;;5129164;28;20032;-73
2022/06/26 09:24:18;;;;;;;2.25;0.75;;;24.70;57.10;;;;;;5129120;28;20066;-72
2022/06/26 09:26:45;;;;;;;1.25;0.88;;;24.70;57.10;;;;;;5128994;28;20058;-72
2022/06/26 09:31:49;;;;;;;1.25;0.60;;;24.60;57.00;;;;;;5150649;27;1225294;-73
2022/06/26 09:34:30;;;;;;;0.90;0.50;;;24.80;56.70;;;;;;5153109;27;20042;-73
2022/06/26 09:36:58;;;;;;;0.80;0.75;;;24.80;56.70;;;;;;5152990;27;20035;-72
2022/06/26 09:39:25;;;;;;;0.90;0.75;;;24.80;56.50;;;;;;5153091;27;20038;-73
2022/06/26 09:41:50;;;;;;;1.20;0.63;;;24.80;56.50;;;;;;5153018;27;20039;-72
2022/06/26 09:44:18;;;;;;;1.17;0.80;;;24.70;56.50;;;;;;5152922;27;20041;-73
2022/06/26 09:46:44;;;;;;;1.48;0.40;;;24.70;56.70;;;;;;5135602;27;20050;-73
2022/06/26 09:49:10;;;;;;;1.73;0.70;;;24.60;56.90;;;;;;5152872;27;20038;-72
2022/06/26 09:51:40;;;;;;;1.77;0.70;;;24.50;57.00;;;;;;5171358;27;20046;-73
2022/06/26 09:54:06;;;;;;;1.38;0.77;;;24.40;57.20;;;;;;5171629;27;20035;-73
2022/06/26 09:56:32;;;;;;;1.35;0.63;;;24.30;57.30;;;;;;5152951;27;20098;-72
2022/06/26 09:58:59;;;;;;;1.08;0.57;;;24.30;57.40;;;;;;5152704;27;20039;-72
2022/06/26 10:07:02;;;;;;;0.77;0.60;;;24.40;57.10;;;;;;5152260;27;20042;-72
2022/06/26 10:09:29;;;;;;;1.02;0.80;;;24.50;56.90;;;;;;5152424;27;20056;-72
2022/06/26 10:11:57;;;;;;;1.17;0.63;;;24.50;56.70;;;;;;5170895;27;20026;-72
2022/06/26 10:14:30;;;;;;;1.00;0.60;;;24.50;56.90;;;;;;5152419;27;20038;-72
2022/06/26 10:19:58;;;;;;;0.80;0.75;;;24.40;56.80;;;;;;5130735;27;20410;-72
2022/06/26 10:22:24;;;;;;;1.00;0.68;;;24.40;57.10;;;;;;5129634;28;20050;-72
2022/06/26 10:24:59;;;;;;;0.95;0.70;;;24.30;57.10;;;;;;5128972;28;20118;-72
2022/06/26 10:32:44;;;;;;;0.90;0.40;;;24.30;57.20;;;;;;5089455;28;20406;-71
2022/06/26 10:35:12;;;;;;;1.10;0.60;;;24.20;57.40;;;;;;5089412;28;20047;-72
2022/06/26 10:37:41;;;;;;;0.82;0.60;;;24.10;57.40;;;;;;5088331;28;20426;-72
2022/06/26 10:43:11;;;;;;;0.82;0.63;;;24.10;57.50;;;;;;5074004;28;20078;-72
2022/06/26 10:45:39;;;;;;;2.05;0.60;;;24.10;57.50;;;;;;5088218;28;20472;-72
2022/06/26 10:50:56;;;;;;;1.48;0.55;;;24.00;57.50;;;;;;5131336;27;20411;-72
2022/06/26 10:53:25;;;;;;;1.25;0.70;;;24.00;57.50;;;;;;5129366;28;20045;-72
2022/06/26 10:55:54;;;;;;;1.85;0.57;;;24.00;57.50;;;;;;5129044;28;20046;-72
2022/06/26 10:58:41;;;;;;;1.17;0.50;;;24.00;57.50;;;;;;5129098;27;20110;-72
2022/06/26 11:01:08;;;;;;;1.42;0.70;;;24.00;57.50;;;;;;5129169;28;20420;-71
2022/06/26 11:03:36;;;;;;;1.80;0.80;;;24.10;57.40;;;;;;5129018;28;20501;-70
2022/06/26 11:06:04;;;;;;;1.52;0.88;;;24.00;57.30;;;;;;5130130;27;20044;-72
2022/06/26 11:08:33;;;;;;;1.58;0.60;;;24.10;57.30;;;;;;5128821;28;20027;-72
2022/06/26 11:11:22;;;;;;;1.02;0.55;;;24.00;57.30;;;;;;5130022;27;20040;-71
2022/06/26 11:13:57;;;;;;;1.15;0.60;;;24.10;57.40;;;;;;5128397;28;20560;-72
2022/06/26 11:16:35;;;;;;;1.55;0.70;;;24.00;57.40;;;;;;5128850;28;20035;-71
2022/06/26 11:19:04;;;;;;;1.17;0.60;;;24.00;57.30;;;;;;5127739;28;20507;-72
2022/06/26 11:21:30;;;;;;;1.23;0.70;;;24.00;58.00;;;;;;5129498;28;20118;-72
2022/06/26 11:23:56;;;;;;;1.10;0.50;;;24.00;57.30;;;;;;5128586;28;20039;-72
2022/06/26 11:26:23;;;;;;;1.65;0.70;;;24.10;57.40;;;;;;5129670;28;20040;-72
2022/06/26 11:29:05;;;;;;;1.70;0.60;;;24.00;57.20;;;;;;5128514;28;20039;-70
2022/06/26 11:31:32;;;;;;;1.70;0.60;;;24.00;57.30;;;;;;5128211;27;20043;-72
2022/06/26 11:34:15;;;;;;;1.08;0.57;;;24.00;57.30;;;;;;5128437;28;20072;-71
2022/06/26 11:36:50;;;;;;;0.90;0.70;;;24.00;57.40;;;;;;5128176;28;20039;-71
2022/06/26 11:39:16;;;;;;;0.93;0.43;;;24.00;57.30;;;;;;5129573;28;20039;-70
2022/06/26 11:41:43;;;;;;;0.80;0.45;;;23.90;57.20;;;;;;5128270;28;20054;-70
2022/06/26 11:44:08;;;;;;;0.70;0.40;;;24.00;57.30;;;;;;5128181;28;20090;-71
2022/06/26 11:46:34;;;;;;;0.80;0.45;;;24.00;57.30;;;;;;5129147;28;20551;-71
2022/06/26 11:49:00;;;;;;;1.33;0.52;;;24.00;57.40;;;;;;5129044;28;20047;-70
2022/06/26 11:51:30;;;;;;;0.77;0.50;;;24.00;57.30;;;;;;5127873;28;20050;-71
2022/06/26 11:53:56;;;;;;;0.90;0.47;;;24.00;57.30;;;;;;5128083;28;20168;-70
2022/06/26 11:56:26;;;;;;;0.95;0.60;;;24.00;58.00;;;;;;5129147;27;20510;-71
2022/06/26 11:58:53;;;;;;;1.77;0.60;;;24.00;57.30;;;;;;5127967;28;20047;-71
2022/06/26 12:01:20;;;;;;;0.60;0.55;;;24.00;57.30;;;;;;5118541;28;20075;-71
2022/06/26 12:09:25;;;;;;;1.10;0.50;;;24.00;57.30;;;;;;5130322;27;20403;-70
2022/06/26 12:11:54;;;;;;;1.42;0.60;;;24.00;57.20;;;;;;5128928;27;20116;-71
2022/06/26 12:14:24;;;;;;;0.85;0.40;;;24.00;57.20;;;;;;5129045;28;20046;-70
2022/06/26 12:19:45;;;;;;;1.48;0.60;;;24.00;57.10;;;;;;5130343;27;20391;-70
2022/06/26 12:22:10;;;;;;;1.38;0.88;;;24.00;57.20;;;;;;5128224;28;20050;-70
2022/06/26 12:24:36;;;;;;;1.00;0.52;;;24.00;57.20;;;;;;5129196;27;20051;-70
2022/06/26 12:27:02;;;;;;;0.98;0.50;;;24.00;57.20;;;;;;5130190;28;20542;-70
2022/06/26 12:29:28;;;;;;;1.33;0.60;;;24.00;57.30;;;;;;5128948;28;20463;-70
2022/06/26 12:31:53;;;;;;;0.90;0.70;;;24.00;57.30;;;;;;5128774;28;20054;-72
2022/06/26 12:34:19;;;;;;;2.45;0.88;;;23.90;57.30;;;;;;5128817;28;20122;-70
2022/06/26 12:36:45;;;;;;;1.20;0.70;;;23.90;57.20;;;;;;5128826;28;20118;-71
2022/06/26 12:39:11;;;;;;;0.80;0.60;;;23.90;57.30;;;;;;5128699;27;20491;-71
2022/06/26 12:41:38;;;;;;;1.10;0.68;;;23.90;57.30;;;;;;5127893;27;20039;-71
2022/06/26 12:44:06;;;;;;;1.77;0.70;;;23.90;57.40;;;;;;5128858;28;20083;-72
2022/06/26 12:46:32;;;;;;;0.80;0.50;;;23.90;57.30;;;;;;5129846;28;20039;-70
2022/06/26 12:48:59;;;;;;;0.88;0.50;;;23.90;57.30;;;;;;5128105;28;20074;-70
2022/06/26 12:51:27;;;;;;;1.48;0.90;;;23.90;57.20;;;;;;5129574;28;20387;-71
2022/06/26 12:53:52;;;;;;;1.38;0.68;;;23.90;57.20;;;;;;5128644;28;20510;-71
2022/06/26 12:56:19;;;;;;;2.20;0.98;;;23.80;57.10;;;;;;5128702;28;20031;-71
2022/06/26 12:58:44;;;;;;;1.48;0.40;;;23.80;57.20;;;;;;5128167;28;20047;-70
2022/06/26 13:01:10;;;;;;;0.80;0.60;;;23.90;57.20;;;;;;5129698;28;20157;-71
2022/06/26 13:03:36;;;;;;;2.08;0.80;;;23.80;57.10;;;;;;5128396;28;20492;-70
2022/06/26 13:06:03;;;;;;;1.83;0.80;;;23.80;57.20;;;;;;5111181;28;20892;-71
2022/06/26 13:08:31;;;;;;;1.55;0.98;;;23.80;57.20;;;;;;5128246;28;20128;-70
2022/06/26 13:11:22;;;;;;;1.40;0.75;;;23.80;57.20;;;;;;5128333;28;20062;-70
2022/06/26 13:13:42;;;;;;;1.83;0.77;;;23.80;57.20;;;;;;5129081;28;20051;-71
2022/06/26 13:16:08;;;;;;;2.15;0.80;;;23.80;57.20;;;;;;5128284;28;20502;-70
2022/06/26 13:18:37;;;;;;;2.00;0.55;;;23.80;57.20;;;;;;5127680;28;20701;-71
2022/06/26 13:21:03;;;;;;;1.20;0.68;;;23.80;57.20;;;;;;5127781;27;20537;-70
2022/06/26 13:23:30;;;;;;;0.90;0.70;;;23.80;57.30;;;;;;5129083;27;20054;-71
2022/06/26 13:25:56;;;;;;;1.52;0.90;;;23.80;57.20;;;;;;5127778;28;20074;-71